createdAt,value
2023-06-04T00:01:43.377Z,100642.28
2023-06-04T00:04:10.624Z,100648.09
2023-06-04T00:06:38.284Z,100648.25
2023-06-04T00:09:05.534Z,100649.88
2023-06-04T00:11:35.112Z,100651.63
2023-06-04T00:14:02.801Z,100651.13
2023-06-04T00:16:30.874Z,100650.50
2023-06-04T00:18:58.175Z,100656.66
2023-06-04T00:21:25.342Z,100652.25
2023-06-04T00:23:52.691Z,100650.44
2023-06-04T00:26:19.976Z,100652.06
2023-06-04T00:28:49.113Z,100654.66
2023-06-04T00:31:17.007Z,100655.91
2023-06-04T00:33:44.742Z,100658.16
2023-06-04T00:36:11.937Z,100660.09
2023-06-04T00:38:39.129Z,100661.84
2023-06-04T00:41:06.659Z,100660.53
2023-06-04T00:43:34.612Z,100667.78
2023-06-04T00:46:03.612Z,100663.94
2023-06-04T00:48:31.780Z,100666.78
2023-06-04T00:50:59.021Z,100670.47
2023-06-04T00:53:27.338Z,100663.16
2023-06-04T00:55:54.576Z,100670.91
2023-06-04T00:58:22.176Z,100674.16
2023-06-04T01:00:49.501Z,100670.91
2023-06-04T01:03:19.568Z,100688.53
2023-06-04T01:05:55.571Z,100673.25
2023-06-04T01:08:23.750Z,100682.16
2023-06-04T01:10:54.853Z,100674.22
2023-06-04T01:13:22.149Z,100682.75
2023-06-04T01:15:49.965Z,100687.56
2023-06-04T01:18:30.014Z,100690.13
2023-06-04T01:21:02.751Z,100686.91
2023-06-04T01:23:59.867Z,100693.00
2023-06-04T01:26:28.133Z,100687.50
2023-06-04T01:28:56.223Z,100699.94
2023-06-04T01:31:24.271Z,100692.47
2023-06-04T01:33:54.923Z,100698.94
2023-06-04T01:36:22.146Z,100697.09
2023-06-04T01:38:49.378Z,100698.84
2023-06-04T01:41:18.472Z,100692.22
2023-06-04T01:43:46.316Z,100696.09
2023-06-04T01:46:13.587Z,100701.41
2023-06-04T01:48:42.053Z,100699.78
2023-06-04T01:51:09.684Z,100701.69
2023-06-04T01:53:38.995Z,100699.59
2023-06-04T01:56:06.734Z,100702.94
2023-06-04T01:58:35.089Z,100698.88
2023-06-04T02:01:04.659Z,100698.56
2023-06-04T02:03:38.092Z,100696.75
2023-06-04T02:06:09.516Z,100713.03
2023-06-04T02:08:37.488Z,100708.16
2023-06-04T02:11:05.766Z,100707.78
2023-06-04T02:13:33.373Z,100709.50
2023-06-04T02:16:00.689Z,100720.50
2023-06-04T02:18:28.161Z,100715.47
2023-06-04T02:20:55.850Z,100723.44
2023-06-04T02:23:24.760Z,100721.50
2023-06-04T02:25:53.885Z,100726.66
2023-06-04T02:28:21.916Z,100720.19
2023-06-04T02:30:49.152Z,100730.94
2023-06-04T02:33:17.139Z,100730.94
2023-06-04T02:35:44.723Z,100730.16
2023-06-04T02:38:13.249Z,100732.56
2023-06-04T02:40:41.128Z,100738.06
2023-06-04T02:43:08.923Z,100746.00
2023-06-04T02:45:36.461Z,100742.75
2023-06-04T02:48:03.869Z,100741.44
2023-06-04T02:50:31.584Z,100752.13
2023-06-04T02:52:59.422Z,100752.63
2023-06-04T02:55:27.073Z,100760.88
2023-06-04T02:57:54.542Z,100764.75
2023-06-04T03:00:21.873Z,100759.25
2023-06-04T03:02:50.080Z,100762.28
2023-06-04T03:05:19.115Z,100767.28
2023-06-04T03:07:47.475Z,100763.72
2023-06-04T03:10:16.255Z,100763.91
2023-06-04T03:12:44.829Z,100766.38
2023-06-04T03:15:12.175Z,100768.81
2023-06-04T03:17:39.813Z,100764.94
2023-06-04T03:20:08.496Z,100773.72
2023-06-04T03:22:37.083Z,100773.06
2023-06-04T03:25:05.149Z,100776.34
2023-06-04T03:27:33.349Z,100782.88
2023-06-04T03:30:00.873Z,100771.88
2023-06-04T03:32:34.563Z,100777.38
2023-06-04T03:35:02.537Z,100782.75
2023-06-04T03:37:30.079Z,100791.50
2023-06-04T03:39:57.808Z,100793.16
2023-06-04T03:42:25.112Z,100785.50
2023-06-04T03:44:52.819Z,100789.75
2023-06-04T03:47:21.083Z,100794.75
2023-06-04T03:49:48.684Z,100792.03
2023-06-04T03:52:16.482Z,100789.75
2023-06-04T03:54:44.140Z,100789.75
2023-06-04T03:57:12.180Z,100788.03
2023-06-04T03:59:39.826Z,100787.94
2023-06-04T04:02:08.112Z,100793.84
2023-06-04T04:04:35.966Z,100782.22
2023-06-04T04:07:03.598Z,100785.28
2023-06-04T04:09:31.204Z,100789.34
2023-06-04T04:11:59.355Z,100793.41
2023-06-04T04:14:27.004Z,100782.50
2023-06-04T04:16:54.723Z,100798.69
2023-06-04T04:19:22.452Z,100796.25
2023-06-04T04:21:50.209Z,100800.94
2023-06-04T04:24:25.641Z,100802.16
2023-06-04T04:26:54.616Z,100807.88
2023-06-04T04:29:26.076Z,100803.78
2023-06-04T04:31:53.706Z,100800.72
2023-06-04T04:34:23.062Z,100802.53
2023-06-04T04:36:54.004Z,100809.69
2023-06-04T04:39:25.300Z,100813.94
2023-06-04T04:41:55.647Z,100810.06
2023-06-04T04:44:22.930Z,100805.56
2023-06-04T04:46:50.727Z,100810.63
2023-06-04T04:49:18.154Z,100808.00
2023-06-04T04:51:45.557Z,100817.16
2023-06-04T04:54:13.474Z,100821.59
2023-06-04T04:56:42.562Z,100830.53
2023-06-04T04:59:10.057Z,100820.84
2023-06-04T05:01:37.681Z,100825.44
2023-06-04T05:04:07.240Z,100821.53
2023-06-04T05:06:38.880Z,100829.06
2023-06-04T05:09:08.108Z,100824.03
2023-06-04T05:11:36.975Z,100823.28
2023-06-04T05:14:04.956Z,100828.06
2023-06-04T05:16:32.580Z,100824.03
2023-06-04T05:19:01.571Z,100834.44
2023-06-04T05:21:33.697Z,100832.53
2023-06-04T05:24:04.782Z,100833.09
2023-06-04T05:26:35.776Z,100827.13
2023-06-04T05:29:09.889Z,100834.63
2023-06-04T05:31:41.585Z,100845.00
2023-06-04T05:34:17.884Z,100842.31
2023-06-04T05:36:46.859Z,100834.59
2023-06-04T05:39:15.299Z,100838.34
2023-06-04T05:42:00.843Z,100836.69
2023-06-04T05:44:28.703Z,100843.22
2023-06-04T05:46:56.565Z,100843.56
2023-06-04T05:49:25.647Z,100840.66
2023-06-04T05:51:53.938Z,100837.13
2023-06-04T05:54:21.789Z,100830.00
2023-06-04T05:56:50.364Z,100833.91
2023-06-04T05:59:17.685Z,100832.66
2023-06-04T06:01:44.894Z,100831.00
2023-06-04T06:04:13.732Z,100832.81
2023-06-04T06:06:44.968Z,100827.44
2023-06-04T06:09:12.294Z,100818.22
2023-06-04T06:11:39.776Z,100819.03
2023-06-04T06:14:07.043Z,100829.09
2023-06-04T06:16:34.432Z,100819.03
2023-06-04T06:19:03.085Z,100828.28
2023-06-04T06:21:31.044Z,100821.63
2023-06-04T06:23:58.473Z,100826.84
2023-06-04T06:26:26.335Z,100815.13
2023-06-04T06:28:57.264Z,100807.19
2023-06-04T06:31:25.103Z,100811.94
2023-06-04T06:33:52.388Z,100809.00
2023-06-04T06:36:20.118Z,100804.44
2023-06-04T06:38:47.741Z,100801.03
2023-06-04T06:41:15.071Z,100803.13
2023-06-04T06:43:42.261Z,100796.31
2023-06-04T06:46:09.598Z,100794.03
2023-06-04T06:48:38.060Z,100799.19
2023-06-04T06:51:05.420Z,100794.63
2023-06-04T06:53:33.437Z,100804.53
2023-06-04T06:56:00.647Z,100812.66
2023-06-04T06:58:28.083Z,100818.31
2023-06-04T07:00:57.852Z,100808.72
2023-06-04T07:03:25.593Z,100804.97
2023-06-04T07:05:53.445Z,100814.38
2023-06-04T07:08:22.401Z,100816.28
2023-06-04T07:10:49.965Z,100819.81
2023-06-04T07:13:18.338Z,100810.22
2023-06-04T07:15:45.560Z,100816.56
2023-06-04T07:18:13.646Z,100824.34
2023-06-04T07:20:41.534Z,100824.66
2023-06-04T07:23:09.129Z,100820.75
2023-06-04T07:25:36.531Z,100818.31
2023-06-04T07:28:05.162Z,100807.53
2023-06-04T07:30:33.141Z,100805.66
2023-06-04T07:33:00.696Z,100805.97
2023-06-04T07:35:28.021Z,100811.44
2023-06-04T07:37:55.211Z,100808.81
2023-06-04T07:40:22.833Z,100806.63
2023-06-04T07:42:50.356Z,100806.31
2023-06-04T07:45:18.106Z,100808.69
2023-06-04T07:47:46.340Z,100807.00
2023-06-04T07:50:13.829Z,100810.22
2023-06-04T07:52:41.419Z,100806.91
2023-06-04T07:55:09.654Z,100801.16
2023-06-04T07:57:37.428Z,100811.38
2023-06-04T08:00:06.705Z,100811.53
2023-06-04T08:02:39.098Z,100813.28
2023-06-04T08:05:06.795Z,100808.53
2023-06-04T08:07:34.625Z,100802.59
2023-06-04T08:10:02.240Z,100805.78
2023-06-04T08:12:29.799Z,100803.44
2023-06-04T08:14:58.449Z,100818.53
2023-06-04T08:17:25.996Z,100821.06
2023-06-04T08:19:53.486Z,100822.94
2023-06-04T08:22:20.846Z,100815.81
2023-06-04T08:24:48.433Z,100815.56
2023-06-04T08:27:15.660Z,100821.13
2023-06-04T08:29:42.843Z,100808.56
2023-06-04T08:32:10.630Z,100807.97
2023-06-04T08:34:37.903Z,100806.59
2023-06-04T08:37:05.337Z,100816.44
2023-06-04T08:39:34.380Z,100815.28
2023-06-04T08:42:03.264Z,100809.25
2023-06-04T08:44:31.627Z,100807.22
2023-06-04T08:47:07.277Z,100808.03
2023-06-04T08:49:38.781Z,100808.03
2023-06-04T08:52:07.370Z,100813.00
2023-06-04T08:54:35.238Z,100800.38
2023-06-04T08:57:03.445Z,100800.84
2023-06-04T08:59:30.788Z,100801.97
2023-06-04T09:01:58.244Z,100804.75
2023-06-04T09:04:25.691Z,100800.13
2023-06-04T09:06:53.664Z,100801.53
2023-06-04T09:09:20.899Z,100812.63
2023-06-04T09:11:55.831Z,100809.09
2023-06-04T09:14:23.482Z,100800.53
2023-06-04T09:16:52.350Z,100806.41
2023-06-04T09:19:19.963Z,100797.13
2023-06-04T09:21:55.955Z,100794.00
2023-06-04T09:24:27.258Z,100802.06
2023-06-04T09:26:54.465Z,100787.69
2023-06-04T09:29:22.090Z,100781.44
2023-06-04T09:31:58.824Z,100787.81
2023-06-04T09:34:30.139Z,100777.00
2023-06-04T09:36:57.778Z,100779.53
2023-06-04T09:39:25.232Z,100776.91
2023-06-04T09:42:03.723Z,100771.91
2023-06-04T09:44:31.566Z,100774.44
2023-06-04T09:46:59.644Z,100761.06
2023-06-04T09:49:27.138Z,100767.44
2023-06-04T09:51:57.535Z,100755.78
2023-06-04T09:54:24.788Z,100751.81
2023-06-04T09:56:52.252Z,100753.56
2023-06-04T09:59:19.806Z,100746.34
2023-06-04T10:01:47.007Z,100753.75
2023-06-04T10:04:14.787Z,100769.03
2023-06-04T10:06:42.211Z,100758.75
2023-06-04T10:09:10.451Z,100763.69
2023-06-04T10:11:54.342Z,100758.50
2023-06-04T10:14:28.302Z,100758.94
2023-06-04T10:16:55.823Z,100755.00
2023-06-04T10:19:23.935Z,100741.88
2023-06-04T10:21:51.250Z,100750.44
2023-06-04T10:24:18.425Z,100732.44
2023-06-04T10:26:45.988Z,100733.59
2023-06-04T10:29:13.300Z,100727.31
2023-06-04T10:31:42.474Z,100730.16
2023-06-04T10:34:09.809Z,100735.91
2023-06-04T10:36:45.372Z,100727.69
2023-06-04T10:39:13.179Z,100729.31
2023-06-04T10:41:40.625Z,100727.03
2023-06-04T10:44:07.890Z,100723.00
2023-06-04T10:46:40.695Z,100719.22
2023-06-04T10:49:10.299Z,100735.56
2023-06-04T10:51:42.006Z,100720.47
2023-06-04T10:54:09.524Z,100720.00
2023-06-04T10:56:37.850Z,100718.63
2023-06-04T10:59:18.203Z,100715.03
2023-06-04T11:01:45.938Z,100719.88
2023-06-04T11:04:26.520Z,100727.41
2023-06-04T11:07:04.761Z,100721.78
2023-06-04T11:09:34.533Z,100713.78
2023-06-04T11:12:02.317Z,100719.34
2023-06-04T11:14:30.130Z,100711.50
2023-06-04T11:16:57.744Z,100706.81
2023-06-04T11:19:25.086Z,100717.56
2023-06-04T11:21:52.305Z,100730.47
2023-06-04T11:24:19.781Z,100733.28
2023-06-04T11:26:56.916Z,100724.84
2023-06-04T11:29:34.434Z,100720.56
2023-06-04T11:32:01.697Z,100727.75
2023-06-04T11:34:30.978Z,100723.81
2023-06-04T11:37:08.478Z,100727.03
2023-06-04T11:39:36.517Z,100724.03
2023-06-04T11:42:06.543Z,100723.38
2023-06-04T11:44:35.045Z,100713.19
2023-06-04T11:47:02.527Z,100719.66
2023-06-04T11:49:30.188Z,100716.50
2023-06-04T11:51:57.594Z,100717.81
2023-06-04T11:54:24.949Z,100707.88
2023-06-04T11:56:52.355Z,100712.81
2023-06-04T11:59:19.778Z,100708.91
2023-06-04T12:01:47.776Z,100712.06
2023-06-04T12:04:16.355Z,100717.34
2023-06-04T12:06:59.062Z,100716.97
2023-06-04T12:09:30.444Z,100711.81
2023-06-04T12:12:02.005Z,100707.66
2023-06-04T12:14:29.772Z,100712.25
2023-06-04T12:16:58.315Z,100710.38
2023-06-04T12:19:27.313Z,100707.75
2023-06-04T12:22:02.840Z,100704.03
2023-06-04T12:24:31.371Z,100706.53
2023-06-04T12:27:05.439Z,100712.25
2023-06-04T12:29:32.707Z,100715.53
2023-06-04T12:32:05.060Z,100711.03
2023-06-04T12:34:33.039Z,100709.00
2023-06-04T12:37:00.529Z,100701.00
2023-06-04T12:39:28.663Z,100704.59
2023-06-04T12:41:56.248Z,100698.91
2023-06-04T12:44:23.594Z,100706.06
2023-06-04T12:46:51.668Z,100692.31
2023-06-04T12:49:19.193Z,100700.09
2023-06-04T12:51:46.767Z,100698.69
2023-06-04T12:54:14.528Z,100694.81
2023-06-04T12:56:44.838Z,100689.41
2023-06-04T12:59:12.216Z,100686.22
2023-06-04T13:01:39.903Z,100689.81
2023-06-04T13:04:07.749Z,100688.69
2023-06-04T13:06:36.771Z,100678.34
2023-06-04T13:09:10.237Z,100688.69
2023-06-04T13:11:42.695Z,100683.31
2023-06-04T13:14:10.451Z,100684.25
2023-06-04T13:16:39.606Z,100687.56
2023-06-04T13:19:08.172Z,100686.03
2023-06-04T13:21:37.670Z,100687.44
2023-06-04T13:24:08.594Z,100686.31
2023-06-04T13:26:36.651Z,100683.56
2023-06-04T13:29:04.288Z,100686.72
2023-06-04T13:31:32.232Z,100676.25
2023-06-04T13:34:11.562Z,100682.53
2023-06-04T13:36:49.508Z,100673.81
2023-06-04T13:39:17.134Z,100686.94
2023-06-04T13:41:44.522Z,100683.00
2023-06-04T13:44:11.744Z,100681.91
2023-06-04T13:46:39.146Z,100676.31
2023-06-04T13:49:06.719Z,100681.50
2023-06-04T13:51:33.899Z,100673.19
2023-06-04T13:54:01.322Z,100667.63
2023-06-04T13:56:28.906Z,100671.53
2023-06-04T13:58:56.206Z,100671.47
2023-06-04T14:01:23.670Z,100661.78
2023-06-04T14:03:51.595Z,100667.72
2023-06-04T14:06:19.075Z,100660.13
2023-06-04T14:08:46.296Z,100672.94
2023-06-04T14:11:13.434Z,100665.63
2023-06-04T14:13:42.403Z,100669.63
2023-06-04T14:16:09.577Z,100665.59
2023-06-04T14:18:37.150Z,100660.72
2023-06-04T14:21:04.269Z,100655.94
2023-06-04T14:23:32.008Z,100660.88
2023-06-04T14:25:59.499Z,100655.03
2023-06-04T14:28:27.026Z,100660.72
2023-06-04T14:30:54.259Z,100658.59
2023-06-04T14:33:21.706Z,100664.84
2023-06-04T14:35:48.936Z,100671.06
2023-06-04T14:38:17.812Z,100664.97
2023-06-04T14:40:46.653Z,100666.53
2023-06-04T14:43:14.006Z,100665.25
2023-06-04T14:45:41.820Z,100663.66
2023-06-04T14:50:40.431Z,100675.13
2023-06-04T14:53:08.730Z,100680.41
2023-06-04T14:55:37.271Z,100679.50
2023-06-04T14:58:05.627Z,100683.50
2023-06-04T15:00:33.903Z,100682.69
2023-06-04T15:03:04.046Z,100675.91
2023-06-04T15:05:32.732Z,100674.84
2023-06-04T15:08:00.309Z,100682.47
2023-06-04T15:10:27.907Z,100670.69
2023-06-04T15:12:55.261Z,100684.06
2023-06-04T15:15:22.577Z,100679.22
2023-06-04T15:17:50.281Z,100681.16
2023-06-04T15:20:17.708Z,100683.56
2023-06-04T15:22:45.504Z,100681.69
2023-06-04T15:25:13.139Z,100669.78
2023-06-04T15:27:42.109Z,100674.63
2023-06-04T15:30:09.548Z,100678.66
2023-06-04T15:32:37.423Z,100677.66
2023-06-04T15:35:05.272Z,100684.03
2023-06-04T15:37:32.815Z,100680.00
2023-06-04T15:40:02.280Z,100678.31
2023-06-04T15:42:29.669Z,100672.69
2023-06-04T15:44:56.919Z,100679.47
2023-06-04T15:47:24.112Z,100685.28
2023-06-04T15:49:51.386Z,100682.81
2023-06-04T15:52:20.637Z,100682.44
2023-06-04T15:54:49.592Z,100697.13
2023-06-04T15:57:17.161Z,100689.19
2023-06-04T15:59:44.482Z,100687.53
2023-06-04T16:02:12.142Z,100685.00
2023-06-04T16:04:39.507Z,100685.00
2023-06-04T16:07:07.134Z,100683.84
2023-06-04T16:09:34.403Z,100689.44
2023-06-04T16:12:01.631Z,100681.34
2023-06-04T16:14:29.142Z,100676.50
2023-06-04T16:16:56.535Z,100672.78
2023-06-04T16:19:23.850Z,100679.41
2023-06-04T16:21:51.565Z,100692.50
2023-06-04T16:24:19.082Z,100683.25
2023-06-04T16:26:46.493Z,100678.91
2023-06-04T16:29:14.003Z,100674.53
2023-06-04T16:31:41.553Z,100680.19
2023-06-04T16:34:09.738Z,100674.16
2023-06-04T16:36:39.880Z,100669.63
2023-06-04T16:39:07.065Z,100670.75
2023-06-04T16:41:36.246Z,100672.34
2023-06-04T16:44:03.649Z,100673.84
2023-06-04T16:46:31.808Z,100676.91
2023-06-04T16:48:59.264Z,100674.41
2023-06-04T16:51:26.627Z,100671.88
2023-06-04T16:53:54.059Z,100681.28
2023-06-04T16:56:22.504Z,100677.97
2023-06-04T16:58:50.165Z,100675.53
2023-06-04T17:01:19.244Z,100675.47
2023-06-04T17:03:46.758Z,100669.66
2023-06-04T17:06:14.401Z,100669.53
2023-06-04T17:08:42.063Z,100672.59
2023-06-04T17:11:10.910Z,100669.19
2023-06-04T17:13:38.271Z,100678.59
2023-06-04T17:16:06.241Z,100668.09
2023-06-04T17:18:33.693Z,100675.13
2023-06-04T17:21:01.251Z,100680.63
2023-06-04T17:23:29.112Z,100669.31
2023-06-04T17:25:56.868Z,100671.19
2023-06-04T17:28:24.330Z,100676.16
2023-06-04T17:30:51.875Z,100672.75
2023-06-04T17:33:19.354Z,100677.00
2023-06-04T17:35:46.669Z,100683.59
2023-06-04T17:38:13.826Z,100680.31
2023-06-04T17:40:41.152Z,100686.59
2023-06-04T17:43:08.506Z,100691.97
2023-06-04T17:45:36.007Z,100690.97
2023-06-04T17:48:03.452Z,100702.72
2023-06-04T17:50:30.866Z,100697.72
2023-06-04T17:52:59.973Z,100709.44
2023-06-04T17:55:27.877Z,100704.50
2023-06-04T17:57:56.808Z,100717.50
2023-06-04T18:00:24.296Z,100722.50
2023-06-04T18:02:51.508Z,100721.59
2023-06-04T18:05:19.190Z,100726.63
2023-06-04T18:07:46.617Z,100730.09
2023-06-04T18:10:15.298Z,100724.81
2023-06-04T18:12:45.778Z,100727.59
2023-06-04T18:15:16.066Z,100728.03
2023-06-04T18:17:43.981Z,100727.84
2023-06-04T18:20:12.026Z,100727.75
2023-06-04T18:22:39.544Z,100728.56
2023-06-04T18:25:09.154Z,100731.59
2023-06-04T18:27:38.127Z,100731.13
2023-06-04T18:30:07.630Z,100728.72
2023-06-04T18:32:36.647Z,100736.13
2023-06-04T18:35:04.573Z,100731.16
2023-06-04T18:37:32.181Z,100733.03
2023-06-04T18:39:59.398Z,100736.63
2023-06-04T18:42:30.854Z,100740.53
2023-06-04T18:45:00.474Z,100742.41
2023-06-04T18:47:28.300Z,100741.97
2023-06-04T18:49:56.882Z,100738.72
2023-06-04T18:52:24.775Z,100734.91
2023-06-04T18:54:52.710Z,100740.69
2023-06-04T18:57:20.188Z,100744.16
2023-06-04T18:59:47.344Z,100749.28
2023-06-04T19:02:15.241Z,100745.69
2023-06-04T19:04:45.103Z,100746.41
2023-06-04T19:07:12.270Z,100750.69
2023-06-04T19:09:39.555Z,100748.13
2023-06-04T19:12:07.336Z,100746.75
2023-06-04T19:14:35.151Z,100751.03
2023-06-04T19:17:03.430Z,100756.47
2023-06-04T19:19:30.680Z,100746.72
2023-06-04T19:21:59.359Z,100756.88
2023-06-04T19:24:26.705Z,100744.75
2023-06-04T19:26:54.700Z,100748.22
2023-06-04T19:29:22.364Z,100743.81
2023-06-04T19:31:49.610Z,100744.16
2023-06-04T19:34:17.091Z,100749.16
2023-06-04T19:36:44.313Z,100751.78
2023-06-04T19:39:11.745Z,100754.00
2023-06-04T19:41:39.836Z,100752.25
2023-06-04T19:44:07.258Z,100754.06
2023-06-04T19:46:35.110Z,100753.97
2023-06-04T19:49:02.470Z,100754.78
2023-06-04T19:51:30.167Z,100764.94
2023-06-04T19:53:57.460Z,100766.56
2023-06-04T19:56:24.799Z,100766.34
2023-06-04T19:58:52.668Z,100771.53
2023-06-04T20:01:20.052Z,100770.72
2023-06-04T20:03:47.572Z,100771.28
2023-06-04T20:06:14.877Z,100769.06
2023-06-04T20:08:42.682Z,100773.91
2023-06-04T20:11:12.057Z,100778.50
2023-06-04T20:13:41.695Z,100774.34
2023-06-04T20:16:09.270Z,100760.69
2023-06-04T20:18:36.964Z,100770.63
2023-06-04T20:21:04.563Z,100774.91
2023-06-04T20:23:32.355Z,100777.06
2023-06-04T20:26:04.568Z,100781.16
2023-06-04T20:28:32.115Z,100786.22
2023-06-04T20:30:59.426Z,100785.44
2023-06-04T20:33:27.384Z,100790.16
2023-06-04T20:35:55.155Z,100787.72
2023-06-04T20:38:22.849Z,100793.13
2023-06-04T20:40:50.205Z,100787.47
2023-06-04T20:43:19.031Z,100789.31
2023-06-04T20:45:46.291Z,100784.75
2023-06-04T20:48:13.630Z,100774.22
2023-06-04T20:50:41.771Z,100790.72
2023-06-04T20:53:12.720Z,100788.16
2023-06-04T20:55:39.909Z,100783.94
2023-06-04T20:58:07.465Z,100784.38
2023-06-04T21:00:34.901Z,100783.09
2023-06-04T21:03:02.155Z,100779.34
2023-06-04T21:05:29.559Z,100776.47
2023-06-04T21:07:59.944Z,100775.97
2023-06-04T21:10:28.639Z,100778.94
2023-06-04T21:12:56.804Z,100785.16
2023-06-04T21:15:24.912Z,100788.09
2023-06-04T21:17:52.955Z,100789.31
2023-06-04T21:20:20.453Z,100788.69
2023-06-04T21:22:48.186Z,100790.03
2023-06-04T21:25:15.506Z,100788.06
2023-06-04T21:27:42.905Z,100784.50
2023-06-04T21:30:10.236Z,100789.50
2023-06-04T21:32:38.082Z,100788.56
2023-06-04T21:35:05.944Z,100796.38
2023-06-04T21:37:33.551Z,100785.97
2023-06-04T21:40:00.773Z,100794.94
2023-06-04T21:42:27.962Z,100794.47
2023-06-04T21:44:55.621Z,100796.78
2023-06-04T21:47:23.187Z,100801.34
2023-06-04T21:49:50.696Z,100810.28
2023-06-04T21:52:25.567Z,100802.66
2023-06-04T21:54:53.520Z,100794.53
2023-06-04T21:57:20.882Z,100800.72
2023-06-04T21:59:48.110Z,100804.16
2023-06-04T22:02:15.932Z,100802.06
2023-06-04T22:04:43.646Z,100806.63
2023-06-04T22:07:12.298Z,100798.19
2023-06-04T22:09:40.086Z,100802.09
2023-06-04T22:12:08.044Z,100800.81
2023-06-04T22:14:36.526Z,100810.91
2023-06-04T22:17:03.750Z,100806.84
2023-06-04T22:19:31.595Z,100808.63
2023-06-04T22:21:59.043Z,100811.22
2023-06-04T22:24:26.397Z,100811.91
2023-06-04T22:26:53.529Z,100823.91
2023-06-04T22:29:21.301Z,100813.19
2023-06-04T22:31:49.205Z,100826.69
2023-06-04T22:34:16.416Z,100824.75
2023-06-04T22:36:45.783Z,100818.72
2023-06-04T22:39:13.230Z,100821.97
2023-06-04T22:41:40.918Z,100821.66
2023-06-04T22:44:08.376Z,100818.06
2023-06-04T22:46:36.568Z,100818.91
2023-06-04T22:49:03.726Z,100824.06
2023-06-04T22:51:31.759Z,100823.59
2023-06-04T22:53:58.980Z,100828.66
2023-06-04T22:56:26.400Z,100825.06
2023-06-04T22:58:53.567Z,100841.66
2023-06-04T23:01:20.834Z,100836.75
2023-06-04T23:03:48.476Z,100839.38
2023-06-04T23:06:15.901Z,100841.63
2023-06-04T23:08:43.191Z,100841.34
2023-06-04T23:11:10.570Z,100843.94
2023-06-04T23:13:37.926Z,100843.78
2023-06-04T23:16:05.935Z,100845.22
2023-06-04T23:18:33.889Z,100841.16
2023-06-04T23:21:01.102Z,100840.16
2023-06-04T23:23:28.510Z,100843.25
2023-06-04T23:25:55.640Z,100839.19
2023-06-04T23:28:24.570Z,100838.41
2023-06-04T23:30:51.819Z,100836.44
2023-06-04T23:33:19.472Z,100844.72
2023-06-04T23:35:48.957Z,100839.50
2023-06-04T23:38:16.320Z,100830.75
2023-06-04T23:40:43.613Z,100842.13
2023-06-04T23:43:11.417Z,100844.88
2023-06-04T23:45:39.121Z,100839.66
2023-06-04T23:48:06.588Z,100833.34
2023-06-04T23:50:33.937Z,100833.34
2023-06-04T23:53:01.460Z,100828.63
2023-06-04T23:55:28.605Z,100827.84
2023-06-04T23:57:56.451Z,100836.75
